createdAt,value
2023-05-19T00:00:54.963Z,5.60
2023-05-19T00:01:55.208Z,5.40
2023-05-19T00:02:55.065Z,5.37
2023-05-19T00:03:55.033Z,6.58
2023-05-19T00:04:55.057Z,6.18
2023-05-19T00:05:55.047Z,5.35
2023-05-19T00:06:55.225Z,5.32
2023-05-19T00:07:55.084Z,5.79
2023-05-19T00:08:55.012Z,5.45
2023-05-19T00:09:55.150Z,5.10
2023-05-19T00:10:56.140Z,5.79
2023-05-19T00:11:55.161Z,4.94
2023-05-19T00:12:55.391Z,5.60
2023-05-19T00:13:56.331Z,5.54
2023-05-19T00:14:55.218Z,5.29
2023-05-19T00:15:55.610Z,5.35
2023-05-19T00:16:56.338Z,6.46
2023-05-19T00:17:56.468Z,5.86
2023-05-19T00:18:56.609Z,5.54
2023-05-19T00:19:55.355Z,5.13
2023-05-19T00:20:55.473Z,5.12
2023-05-19T00:21:55.645Z,5.72
2023-05-19T00:22:55.602Z,4.94
2023-05-19T00:23:55.427Z,5.08
2023-05-19T00:24:55.408Z,4.05
2023-05-19T00:25:55.616Z,4.24
2023-05-19T00:26:55.494Z,4.51
2023-05-19T00:27:56.559Z,4.54
2023-05-19T00:28:56.616Z,4.70
2023-05-19T00:29:55.650Z,4.84
2023-05-19T00:30:56.873Z,4.64
2023-05-19T00:31:56.000Z,5.16
2023-05-19T00:32:56.078Z,5.12
2023-05-19T00:33:57.083Z,5.83
2023-05-19T00:34:56.857Z,5.17
2023-05-19T00:35:55.874Z,5.40
2023-05-19T00:36:56.997Z,5.26
2023-05-19T00:37:56.981Z,6.08
2023-05-19T00:38:55.925Z,6.12
2023-05-19T00:39:56.948Z,6.14
2023-05-19T00:40:56.226Z,6.34
2023-05-19T00:41:56.027Z,6.38
2023-05-19T00:42:56.173Z,6.22
2023-05-19T00:43:57.173Z,5.70
2023-05-19T00:44:56.157Z,5.58
2023-05-19T00:45:56.292Z,5.61
2023-05-19T00:46:57.218Z,5.97
2023-05-19T00:47:57.374Z,5.38
2023-05-19T00:48:56.433Z,6.22
2023-05-19T00:49:57.452Z,6.17
2023-05-19T00:50:56.305Z,6.16
2023-05-19T00:51:56.472Z,5.47
2023-05-19T00:52:56.480Z,5.67
2023-05-19T00:53:57.369Z,6.68
2023-05-19T00:54:57.398Z,6.20
2023-05-19T00:55:56.461Z,6.81
2023-05-19T00:56:57.531Z,7.38
2023-05-19T00:57:57.596Z,6.05
2023-05-19T00:58:57.453Z,6.17
2023-05-19T00:59:57.659Z,7.34
2023-05-19T01:00:57.756Z,7.43
2023-05-19T01:01:57.618Z,7.54
2023-05-19T01:02:57.803Z,6.52
2023-05-19T01:03:57.039Z,6.66
2023-05-19T01:04:56.536Z,7.19
2023-05-19T01:05:57.565Z,6.98
2023-05-19T01:06:57.816Z,7.73
2023-05-19T01:07:57.766Z,7.14
2023-05-19T01:08:57.628Z,7.02
2023-05-19T01:09:56.770Z,6.33
2023-05-19T01:10:56.665Z,7.22
2023-05-19T01:11:57.690Z,6.95
2023-05-19T01:12:57.059Z,7.86
2023-05-19T01:13:57.811Z,7.31
2023-05-19T01:14:57.089Z,7.49
2023-05-19T01:15:58.154Z,6.79
2023-05-19T01:16:56.956Z,8.12
2023-05-19T01:17:57.935Z,7.02
2023-05-19T01:18:58.049Z,7.21
2023-05-19T01:19:58.065Z,7.17
2023-05-19T01:20:57.205Z,7.31
2023-05-19T01:21:57.248Z,6.48
2023-05-19T01:22:57.238Z,6.83
2023-05-19T01:23:57.151Z,6.60
2023-05-19T01:24:57.302Z,6.49
2023-05-19T01:25:57.356Z,6.37
2023-05-19T01:26:57.428Z,6.47
2023-05-19T01:27:57.324Z,6.37
2023-05-19T01:28:58.384Z,5.75
2023-05-19T01:29:57.679Z,6.23
2023-05-19T01:30:57.742Z,6.08
2023-05-19T01:31:57.595Z,6.72
2023-05-19T01:32:57.601Z,6.77
2023-05-19T01:33:57.801Z,6.70
2023-05-19T01:34:58.643Z,6.47
2023-05-19T01:35:58.739Z,6.79
2023-05-19T01:36:57.625Z,6.75
2023-05-19T01:37:57.649Z,7.76
2023-05-19T01:38:57.850Z,6.09
2023-05-19T01:39:57.763Z,6.88
2023-05-19T01:40:58.717Z,7.53
2023-05-19T01:41:57.786Z,8.00
2023-05-19T01:42:57.996Z,7.99
2023-05-19T01:43:58.048Z,7.58
2023-05-19T01:44:57.808Z,7.56
2023-05-19T01:45:57.972Z,7.27
2023-05-19T01:46:58.864Z,7.33
2023-05-19T01:47:59.020Z,7.62
2023-05-19T01:48:57.903Z,7.62
2023-05-19T01:49:58.082Z,8.23
2023-05-19T01:50:59.151Z,7.31
2023-05-19T01:51:58.069Z,6.84
2023-05-19T01:52:59.036Z,6.51
2023-05-19T01:53:59.179Z,6.21
2023-05-19T01:54:59.256Z,6.02
2023-05-19T01:55:58.376Z,5.47
2023-05-19T01:56:59.131Z,5.87
2023-05-19T01:57:58.116Z,5.86
2023-05-19T01:58:58.131Z,6.54
2023-05-19T01:59:58.187Z,6.57
2023-05-19T02:00:59.367Z,6.13
2023-05-19T02:01:58.291Z,6.60
2023-05-19T02:02:58.293Z,6.02
2023-05-19T02:03:58.261Z,6.66
2023-05-19T02:04:58.210Z,6.79
2023-05-19T02:05:59.385Z,5.90
2023-05-19T02:06:59.310Z,7.58
2023-05-19T02:07:59.326Z,7.91
2023-05-19T02:08:58.495Z,7.14
2023-05-19T02:09:58.380Z,7.57
2023-05-19T02:10:58.627Z,6.53
2023-05-19T02:11:58.473Z,6.52
2023-05-19T02:12:58.729Z,6.55
2023-05-19T02:13:58.457Z,6.35
2023-05-19T02:14:58.770Z,5.72
2023-05-19T02:15:58.778Z,5.99
2023-05-19T02:16:59.613Z,5.95
2023-05-19T02:17:58.846Z,5.70
2023-05-19T02:18:59.583Z,4.93
2023-05-19T02:19:58.518Z,5.38
2023-05-19T02:20:59.643Z,4.98
2023-05-19T02:21:58.871Z,6.36
2023-05-19T02:22:58.842Z,6.42
2023-05-19T02:23:59.918Z,6.84
2023-05-19T02:24:58.717Z,6.47
2023-05-19T02:25:58.941Z,8.19
2023-05-19T02:26:59.891Z,7.82
2023-05-19T02:27:58.891Z,8.33
2023-05-19T02:28:59.878Z,8.25
2023-05-19T02:29:59.029Z,9.10
2023-05-19T02:30:59.902Z,8.68
2023-05-19T02:31:59.106Z,8.90
2023-05-19T02:32:59.015Z,8.76
2023-05-19T02:33:59.076Z,8.38
2023-05-19T02:35:00.008Z,9.74
2023-05-19T02:36:00.037Z,9.17
2023-05-19T02:36:59.034Z,9.67
2023-05-19T02:37:59.336Z,9.61
2023-05-19T02:38:59.157Z,9.36
2023-05-19T02:40:00.267Z,9.11
2023-05-19T02:41:00.301Z,9.66
2023-05-19T02:42:00.474Z,8.44
2023-05-19T02:42:59.619Z,9.44
2023-05-19T02:43:59.443Z,9.95
2023-05-19T02:44:59.568Z,8.08
2023-05-19T02:46:00.627Z,9.70
2023-05-19T02:47:00.392Z,9.64
2023-05-19T02:48:00.662Z,9.45
2023-05-19T02:48:59.566Z,8.57
2023-05-19T02:50:00.756Z,8.83
2023-05-19T02:50:59.594Z,8.80
2023-05-19T02:51:59.627Z,9.22
2023-05-19T02:52:59.909Z,9.40
2023-05-19T02:53:59.709Z,9.06
2023-05-19T02:55:00.926Z,8.39
2023-05-19T02:56:00.811Z,9.01
2023-05-19T02:56:59.779Z,8.80
2023-05-19T02:57:59.868Z,8.79
2023-05-19T02:58:59.782Z,9.49
2023-05-19T02:59:59.918Z,9.05
2023-05-19T03:01:00.816Z,9.78
2023-05-19T03:02:00.098Z,10.10
2023-05-19T03:03:00.042Z,8.90
2023-05-19T03:04:00.986Z,9.06
2023-05-19T03:05:00.214Z,9.53
2023-05-19T03:06:01.177Z,10.02
2023-05-19T03:07:01.148Z,9.27
2023-05-19T03:08:00.218Z,9.97
2023-05-19T03:09:01.001Z,9.48
2023-05-19T03:10:01.058Z,9.05
2023-05-19T03:11:01.314Z,9.64
2023-05-19T03:12:01.111Z,8.71
2023-05-19T03:13:01.461Z,9.47
2023-05-19T03:14:00.243Z,8.53
2023-05-19T03:15:00.328Z,9.41
2023-05-19T03:16:01.379Z,8.97
2023-05-19T03:17:00.646Z,10.09
2023-05-19T03:18:01.724Z,9.51
2023-05-19T03:19:00.788Z,9.56
2023-05-19T03:20:00.520Z,9.05
2023-05-19T03:21:01.755Z,9.33
2023-05-19T03:22:01.485Z,9.59
2023-05-19T03:23:00.784Z,8.34
2023-05-19T03:24:01.583Z,9.44
2023-05-19T03:25:01.624Z,9.05
2023-05-19T03:26:00.715Z,9.94
2023-05-19T03:27:00.879Z,9.64
2023-05-19T03:28:00.618Z,9.29
2023-05-19T03:29:00.907Z,8.99
2023-05-19T03:30:00.693Z,8.91
2023-05-19T03:31:01.862Z,9.26
2023-05-19T03:32:01.856Z,8.16
2023-05-19T03:33:02.065Z,8.53
2023-05-19T03:34:01.977Z,9.23
2023-05-19T03:35:00.906Z,9.26
2023-05-19T03:36:01.211Z,9.65
2023-05-19T03:37:01.072Z,8.77
2023-05-19T03:38:01.219Z,8.76
2023-05-19T03:39:02.024Z,9.97
2023-05-19T03:40:01.317Z,9.25
2023-05-19T03:41:01.373Z,8.87
2023-05-19T03:42:02.179Z,9.62
2023-05-19T03:43:01.330Z,9.70
2023-05-19T03:44:02.348Z,8.70
2023-05-19T03:45:01.405Z,9.87
2023-05-19T03:46:02.514Z,8.19
2023-05-19T03:47:02.564Z,9.18
2023-05-19T03:48:02.448Z,9.29
2023-05-19T03:49:01.652Z,9.71
2023-05-19T03:50:01.389Z,8.87
2023-05-19T03:51:01.587Z,8.90
2023-05-19T03:52:02.603Z,10.09
2023-05-19T03:53:02.503Z,10.43
2023-05-19T03:54:02.503Z,8.34
2023-05-19T03:55:02.503Z,9.12
2023-05-19T03:56:01.521Z,8.38
2023-05-19T03:57:01.535Z,10.66
2023-05-19T03:58:01.578Z,9.16
2023-05-19T03:59:02.609Z,8.94
2023-05-19T04:00:01.615Z,8.50
2023-05-19T04:01:02.558Z,9.38
2023-05-19T04:02:02.643Z,9.87
2023-05-19T04:03:02.808Z,9.60
2023-05-19T04:04:02.734Z,9.18
2023-05-19T04:05:01.761Z,8.95
2023-05-19T04:06:01.768Z,9.82
2023-05-19T04:07:01.791Z,9.02
2023-05-19T04:08:01.815Z,8.76
2023-05-19T04:09:02.827Z,9.94
2023-05-19T04:10:02.901Z,8.66
2023-05-19T04:11:02.011Z,9.93
2023-05-19T04:12:01.930Z,8.26
2023-05-19T04:13:02.997Z,8.89
2023-05-19T04:14:03.047Z,9.20
2023-05-19T04:15:03.076Z,10.03
2023-05-19T04:16:03.135Z,9.53
2023-05-19T04:17:03.229Z,9.37
2023-05-19T04:18:02.317Z,9.64
2023-05-19T04:19:03.326Z,9.77
2023-05-19T04:20:03.239Z,8.96
2023-05-19T04:21:03.286Z,9.72
2023-05-19T04:22:03.342Z,9.69
2023-05-19T04:23:03.324Z,9.87
2023-05-19T04:24:03.317Z,9.31
2023-05-19T04:25:02.324Z,9.80
2023-05-19T04:26:02.349Z,8.82
2023-05-19T04:27:03.371Z,8.78
2023-05-19T04:28:02.593Z,9.53
2023-05-19T04:29:02.456Z,9.35
2023-05-19T04:30:02.444Z,8.45
2023-05-19T04:31:02.476Z,9.82
2023-05-19T04:32:03.487Z,9.07
2023-05-19T04:33:03.562Z,9.64
2023-05-19T04:34:02.559Z,9.44
2023-05-19T04:35:02.520Z,9.84
2023-05-19T04:36:03.578Z,11.98
2023-05-19T04:37:03.597Z,13.84
2023-05-19T04:38:03.638Z,21.29
2023-05-19T04:39:03.636Z,20.99
2023-05-19T04:40:03.716Z,23.31
2023-05-19T04:41:03.738Z,20.25
2023-05-19T04:42:02.743Z,16.04
2023-05-19T04:43:03.797Z,16.60
2023-05-19T04:44:03.800Z,14.71
2023-05-19T04:45:02.823Z,13.22
2023-05-19T04:46:03.874Z,12.22
2023-05-19T04:47:04.016Z,11.52
2023-05-19T04:48:04.008Z,9.84
2023-05-19T04:49:03.895Z,9.92
2023-05-19T04:50:03.986Z,9.45
2023-05-19T04:51:03.982Z,9.52
2023-05-19T04:52:04.045Z,9.90
2023-05-19T04:53:04.047Z,9.58
2023-05-19T04:54:03.038Z,10.66
2023-05-19T04:55:04.052Z,10.89
2023-05-19T04:56:04.079Z,9.76
2023-05-19T04:57:03.182Z,9.18
2023-05-19T04:58:04.166Z,9.91
2023-05-19T04:59:04.232Z,9.95
2023-05-19T05:00:03.245Z,9.37
2023-05-19T05:01:04.261Z,9.71
2023-05-19T05:02:04.345Z,10.00
2023-05-19T05:03:03.401Z,10.01
2023-05-19T05:04:04.438Z,10.70
2023-05-19T05:05:04.635Z,8.84
2023-05-19T05:06:03.392Z,10.28
2023-05-19T05:07:04.406Z,9.99
2023-05-19T05:08:03.502Z,9.97
2023-05-19T05:09:04.533Z,9.77
2023-05-19T05:10:04.494Z,10.63
2023-05-19T05:11:03.589Z,10.83
2023-05-19T05:12:04.543Z,9.72
2023-05-19T05:13:04.594Z,9.96
2023-05-19T05:14:04.590Z,10.26
2023-05-19T05:15:04.718Z,10.20
2023-05-19T05:16:04.708Z,10.73
2023-05-19T05:17:03.698Z,10.45
2023-05-19T05:18:03.802Z,9.90
2023-05-19T05:19:04.829Z,9.63
2023-05-19T05:20:03.839Z,9.38
2023-05-19T05:21:04.868Z,10.62
2023-05-19T05:22:04.932Z,9.82
2023-05-19T05:23:04.981Z,10.35
2023-05-19T05:24:03.955Z,10.01
2023-05-19T05:25:03.966Z,10.36
2023-05-19T05:26:05.169Z,10.38
2023-05-19T05:27:05.152Z,9.70
2023-05-19T05:28:05.170Z,9.52
2023-05-19T05:29:05.108Z,9.43
2023-05-19T05:30:04.082Z,9.19
2023-05-19T05:31:04.247Z,10.25
2023-05-19T05:32:04.432Z,10.15
2023-05-19T05:33:04.285Z,11.55
2023-05-19T05:34:04.207Z,10.00
2023-05-19T05:35:05.237Z,9.72
2023-05-19T05:36:05.281Z,10.54
2023-05-19T05:37:05.417Z,9.74
2023-05-19T05:38:05.405Z,10.12
2023-05-19T05:39:04.457Z,9.53
2023-05-19T05:40:05.422Z,9.54
2023-05-19T05:41:05.463Z,9.26
2023-05-19T05:42:05.503Z,9.95
2023-05-19T05:43:05.650Z,10.19
2023-05-19T05:44:05.659Z,9.98
2023-05-19T05:45:04.664Z,9.39
2023-05-19T05:46:05.696Z,10.30
2023-05-19T05:47:05.774Z,10.70
2023-05-19T05:48:04.772Z,10.20
2023-05-19T05:49:04.741Z,10.49
2023-05-19T05:50:04.786Z,10.73
2023-05-19T05:51:05.927Z,10.31
2023-05-19T05:52:06.802Z,10.42
2023-05-19T05:53:05.955Z,10.87
2023-05-19T05:54:06.020Z,11.45
2023-05-19T05:55:05.035Z,11.08
2023-05-19T05:56:06.022Z,11.05
2023-05-19T05:57:06.123Z,12.13
2023-05-19T05:58:06.127Z,11.22
2023-05-19T05:59:06.207Z,10.47
2023-05-19T06:00:05.242Z,11.08
2023-05-19T06:01:06.158Z,11.00
2023-05-19T06:02:05.229Z,11.98
2023-05-19T06:03:05.388Z,10.91
2023-05-19T06:04:05.234Z,10.49
2023-05-19T06:05:06.225Z,11.34
2023-05-19T06:06:06.251Z,12.72
2023-05-19T06:07:06.314Z,12.70
2023-05-19T06:08:05.465Z,12.61
2023-05-19T06:09:06.397Z,11.93
2023-05-19T06:10:05.598Z,11.32
2023-05-19T06:11:06.433Z,11.56
2023-05-19T06:12:06.594Z,11.54
2023-05-19T06:13:05.537Z,10.84
2023-05-19T06:14:06.606Z,11.35
2023-05-19T06:15:06.692Z,11.81
2023-05-19T06:16:06.750Z,11.81
2023-05-19T06:17:05.714Z,12.38
2023-05-19T06:18:06.861Z,11.44
2023-05-19T06:19:06.817Z,11.96
2023-05-19T06:20:05.790Z,11.27
2023-05-19T06:21:05.848Z,11.09
2023-05-19T06:22:05.992Z,10.97
2023-05-19T06:23:05.911Z,11.31
2023-05-19T06:24:07.141Z,11.15
2023-05-19T06:25:05.982Z,11.59
2023-05-19T06:26:06.060Z,11.61
2023-05-19T06:27:06.055Z,11.81
2023-05-19T06:28:07.161Z,11.92
2023-05-19T06:29:07.418Z,12.81
2023-05-19T06:30:07.310Z,12.60
2023-05-19T06:31:07.320Z,11.46
2023-05-19T06:32:06.298Z,12.09
2023-05-19T06:33:07.425Z,12.46
2023-05-19T06:34:06.374Z,12.61
2023-05-19T06:35:06.430Z,11.56
2023-05-19T06:36:06.392Z,11.92
2023-05-19T06:37:07.422Z,10.69
2023-05-19T06:38:07.468Z,11.16
2023-05-19T06:39:06.504Z,11.02
2023-05-19T06:40:07.468Z,11.50
2023-05-19T06:41:07.810Z,11.62
2023-05-19T06:42:06.568Z,12.37
2023-05-19T06:43:07.618Z,11.25
2023-05-19T06:44:06.998Z,11.84
2023-05-19T06:45:06.750Z,10.75
2023-05-19T06:46:06.848Z,10.34
2023-05-19T06:47:06.848Z,11.44
2023-05-19T06:48:06.910Z,10.57
2023-05-19T06:49:06.872Z,10.73
2023-05-19T06:50:08.005Z,11.12
2023-05-19T06:51:07.041Z,11.19
2023-05-19T06:52:08.063Z,10.94
2023-05-19T06:53:06.967Z,10.04
2023-05-19T06:54:08.030Z,10.56
2023-05-19T06:55:08.084Z,10.52
2023-05-19T06:56:07.152Z,10.94
2023-05-19T06:57:07.215Z,10.38
2023-05-19T06:58:07.892Z,10.33
2023-05-19T06:59:07.316Z,9.35
2023-05-19T07:00:07.350Z,12.27
2023-05-19T07:01:08.439Z,11.01
2023-05-19T07:02:08.562Z,11.87
2023-05-19T07:03:08.575Z,11.90
2023-05-19T07:04:08.599Z,9.79
2023-05-19T07:05:08.563Z,10.40
2023-05-19T07:06:08.668Z,10.82
2023-05-19T07:07:08.596Z,10.91
2023-05-19T07:08:08.700Z,11.32
2023-05-19T07:09:08.736Z,12.14
2023-05-19T07:10:07.693Z,12.13
2023-05-19T07:11:07.730Z,12.22
2023-05-19T07:12:08.765Z,11.51
2023-05-19T07:13:07.927Z,12.13
2023-05-19T07:14:08.885Z,11.58
2023-05-19T07:15:07.909Z,11.16
2023-05-19T07:16:07.945Z,12.24
2023-05-19T07:17:09.081Z,11.24
2023-05-19T07:18:08.049Z,11.81
2023-05-19T07:19:09.178Z,11.36
2023-05-19T07:20:08.143Z,10.79
2023-05-19T07:21:09.289Z,11.18
2023-05-19T07:22:09.251Z,10.38
2023-05-19T07:23:09.411Z,10.52
2023-05-19T07:24:09.276Z,11.10
2023-05-19T07:25:09.231Z,9.95
2023-05-19T07:26:09.302Z,10.60
2023-05-19T07:27:09.272Z,11.15
2023-05-19T07:28:08.272Z,10.97
2023-05-19T07:29:09.395Z,11.06
2023-05-19T07:30:08.461Z,11.88
2023-05-19T07:31:08.356Z,11.45
2023-05-19T07:32:08.566Z,11.82
2023-05-19T07:33:09.420Z,11.21
2023-05-19T07:34:08.669Z,12.98
2023-05-19T07:35:08.530Z,11.58
2023-05-19T07:36:09.577Z,11.39
2023-05-19T07:37:09.787Z,11.41
2023-05-19T07:38:09.672Z,11.28
2023-05-19T07:39:10.004Z,10.92
2023-05-19T07:40:09.822Z,10.79
2023-05-19T07:41:08.894Z,10.81
2023-05-19T07:42:09.187Z,10.34
2023-05-19T07:43:08.935Z,10.74
2023-05-19T07:44:09.045Z,10.97
2023-05-19T07:45:10.107Z,10.60
2023-05-19T07:46:10.231Z,10.61
2023-05-19T07:47:09.041Z,11.14
2023-05-19T07:48:10.154Z,10.61
2023-05-19T07:49:09.106Z,10.34
2023-05-19T07:50:10.113Z,11.51
2023-05-19T07:51:09.165Z,10.43
2023-05-19T07:52:10.182Z,10.38
2023-05-19T07:53:09.196Z,10.46
2023-05-19T07:54:09.289Z,10.25
2023-05-19T07:55:10.227Z,10.64
2023-05-19T07:56:10.271Z,10.59
2023-05-19T07:57:10.321Z,10.09
2023-05-19T07:58:09.362Z,10.41
2023-05-19T07:59:10.466Z,9.95
2023-05-19T08:00:09.440Z,11.45
2023-05-19T08:01:09.448Z,10.39
2023-05-19T08:02:10.728Z,10.55
2023-05-19T08:03:09.714Z,10.51
2023-05-19T08:04:11.903Z,9.87
2023-05-19T08:05:10.573Z,10.53
2023-05-19T08:06:09.677Z,10.53
2023-05-19T08:07:10.513Z,9.74
2023-05-19T08:08:10.745Z,10.28
2023-05-19T08:09:09.504Z,10.30
2023-05-19T08:10:10.507Z,10.92
2023-05-19T08:11:10.516Z,10.59
2023-05-19T08:12:10.519Z,10.57
2023-05-19T08:13:09.483Z,10.62
2023-05-19T08:14:10.466Z,10.87
2023-05-19T08:15:09.585Z,9.99
2023-05-19T08:16:10.498Z,9.12
2023-05-19T08:17:10.621Z,9.18
2023-05-19T08:18:09.561Z,10.18
2023-05-19T08:19:10.646Z,11.24
2023-05-19T08:20:09.636Z,9.90
2023-05-19T08:21:09.642Z,10.12
2023-05-19T08:22:09.415Z,9.96
2023-05-19T08:23:09.488Z,9.74
2023-05-19T08:24:10.423Z,10.76
2023-05-19T08:25:10.440Z,10.34
2023-05-19T08:26:10.414Z,12.37
2023-05-19T08:27:10.489Z,10.97
2023-05-19T08:28:10.504Z,10.28
2023-05-19T08:29:09.422Z,10.31
2023-05-19T08:30:10.364Z,10.41
2023-05-19T08:31:10.494Z,12.30
2023-05-19T08:32:12.439Z,10.45
2023-05-19T08:33:09.483Z,11.20
2023-05-19T08:34:10.356Z,11.16
2023-05-19T08:35:09.325Z,11.69
2023-05-19T08:36:09.398Z,10.91
2023-05-19T08:37:09.403Z,10.83
2023-05-19T08:38:10.316Z,10.13
2023-05-19T08:39:10.419Z,10.87
2023-05-19T08:40:10.325Z,10.95
2023-05-19T08:41:10.324Z,10.90
2023-05-19T08:42:09.288Z,9.88
2023-05-19T08:43:10.319Z,11.96
2023-05-19T08:44:10.286Z,9.71
2023-05-19T08:45:10.449Z,9.24
2023-05-19T08:46:09.325Z,9.14
2023-05-19T08:47:10.373Z,8.56
2023-05-19T08:48:09.373Z,8.70
2023-05-19T08:49:10.332Z,8.50
2023-05-19T08:50:09.240Z,7.42
2023-05-19T08:51:10.249Z,7.07
2023-05-19T08:52:09.323Z,7.24
2023-05-19T08:53:18.121Z,7.82
2023-05-19T08:54:10.287Z,7.56
2023-05-19T08:55:10.221Z,6.24
2023-05-19T08:56:10.235Z,6.54
2023-05-19T08:57:10.189Z,6.35
2023-05-19T08:58:10.158Z,5.59
2023-05-19T08:59:10.153Z,4.95
2023-05-19T09:00:10.224Z,4.68
2023-05-19T09:01:09.186Z,5.11
2023-05-19T09:02:10.206Z,5.58
2023-05-19T09:03:18.053Z,6.11
2023-05-19T09:04:10.338Z,5.83
2023-05-19T09:05:10.339Z,4.98
2023-05-19T09:06:09.212Z,5.54
2023-05-19T09:07:09.120Z,5.53
2023-05-19T09:08:09.219Z,5.04
2023-05-19T09:09:09.093Z,5.87
2023-05-19T09:10:09.114Z,5.79
2023-05-19T09:11:09.089Z,5.43
2023-05-19T09:12:09.109Z,5.91
2023-05-19T09:13:10.165Z,5.65
2023-05-19T09:14:10.066Z,5.64
2023-05-19T09:15:10.121Z,6.17
2023-05-19T09:16:10.056Z,5.62
2023-05-19T09:17:09.154Z,6.14
2023-05-19T09:18:09.136Z,5.53
2023-05-19T09:19:09.055Z,5.54
2023-05-19T09:20:09.050Z,6.07
2023-05-19T09:21:09.036Z,6.14
2023-05-19T09:22:10.136Z,6.09
2023-05-19T09:23:10.002Z,6.09
2023-05-19T09:24:10.195Z,5.97
2023-05-19T09:25:10.123Z,6.08
2023-05-19T09:26:09.997Z,5.79
2023-05-19T09:27:09.001Z,5.95
2023-05-19T09:28:08.977Z,6.07
2023-05-19T09:29:10.040Z,5.92
2023-05-19T09:30:10.078Z,5.97
2023-05-19T09:31:09.962Z,6.38
2023-05-19T09:32:09.970Z,6.52
2023-05-19T09:33:08.965Z,6.28
2023-05-19T09:34:08.942Z,6.25
2023-05-19T09:35:09.949Z,5.91
2023-05-19T09:36:09.111Z,5.75
2023-05-19T09:37:09.010Z,5.98
2023-05-19T09:38:10.027Z,6.42
2023-05-19T09:39:10.189Z,4.96
2023-05-19T09:40:10.555Z,5.57
2023-05-19T09:41:09.388Z,5.83
2023-05-19T09:42:10.192Z,5.00
2023-05-19T09:43:10.156Z,5.83
2023-05-19T09:44:09.183Z,6.52
2023-05-19T09:45:09.218Z,5.24
2023-05-19T09:46:11.183Z,4.74
2023-05-19T09:47:10.278Z,4.52
2023-05-19T09:48:09.325Z,5.22
2023-05-19T09:49:10.216Z,4.78
2023-05-19T09:50:10.228Z,4.61
2023-05-19T09:51:09.397Z,4.33
2023-05-19T09:52:10.068Z,4.40
2023-05-19T09:53:09.211Z,5.00
2023-05-19T09:54:09.232Z,5.03
2023-05-19T09:55:09.196Z,4.71
2023-05-19T09:56:10.474Z,5.04
2023-05-19T09:57:10.270Z,5.31
2023-05-19T09:58:12.110Z,4.49
2023-05-19T09:59:09.149Z,5.57
2023-05-19T10:00:09.195Z,4.28
2023-05-19T10:01:10.184Z,4.96
2023-05-19T10:02:09.144Z,4.64
2023-05-19T10:03:10.168Z,4.38
2023-05-19T10:04:10.347Z,4.46
2023-05-19T10:05:10.214Z,4.73
2023-05-19T10:06:10.156Z,5.56
2023-05-19T10:07:09.099Z,4.46
2023-05-19T10:08:10.092Z,4.47
2023-05-19T10:09:10.093Z,4.38
2023-05-19T10:10:10.162Z,4.91
2023-05-19T10:11:10.083Z,4.43
2023-05-19T10:12:10.170Z,4.64
2023-05-19T10:13:10.310Z,5.22
2023-05-19T10:14:09.053Z,5.69
2023-05-19T10:15:10.060Z,6.38
2023-05-19T10:16:09.288Z,5.48
2023-05-19T10:17:09.036Z,5.44
2023-05-19T10:18:09.099Z,4.81
2023-05-19T10:19:10.048Z,5.31
2023-05-19T10:20:09.007Z,5.27
2023-05-19T10:21:09.030Z,5.97
2023-05-19T10:22:08.984Z,6.45
2023-05-19T10:23:10.002Z,5.79
2023-05-19T10:24:11.479Z,5.64
2023-05-19T10:25:10.120Z,5.54
2023-05-19T10:26:09.981Z,5.65
2023-05-19T10:27:08.978Z,5.49
2023-05-19T10:28:09.949Z,5.48
2023-05-19T10:29:10.013Z,5.73
2023-05-19T10:30:11.498Z,5.54
2023-05-19T10:31:09.971Z,5.61
2023-05-19T10:32:08.950Z,6.13
2023-05-19T10:33:09.962Z,5.59
2023-05-19T10:34:09.038Z,6.06
2023-05-19T10:35:09.903Z,5.62
2023-05-19T10:36:09.913Z,5.24
2023-05-19T10:37:09.950Z,6.10
2023-05-19T10:38:09.894Z,4.77
2023-05-19T10:39:08.876Z,5.83
2023-05-19T10:40:08.892Z,4.99
2023-05-19T10:41:10.037Z,4.97
2023-05-19T10:42:09.849Z,5.50
2023-05-19T10:43:09.903Z,5.62
2023-05-19T10:44:09.846Z,5.60
2023-05-19T10:45:08.840Z,5.26
2023-05-19T10:46:09.840Z,4.44
2023-05-19T10:47:08.882Z,4.19
2023-05-19T10:48:08.851Z,4.20
2023-05-19T10:49:08.917Z,3.85
2023-05-19T10:50:08.825Z,4.41
2023-05-19T10:51:10.354Z,4.76
2023-05-19T10:52:08.780Z,5.08
2023-05-19T10:53:09.796Z,3.92
2023-05-19T10:54:08.783Z,4.19
2023-05-19T10:55:09.851Z,4.33
2023-05-19T10:56:09.793Z,4.50
2023-05-19T10:57:08.786Z,4.78
2023-05-19T10:58:09.824Z,4.33
2023-05-19T10:59:09.738Z,4.14
2023-05-19T11:00:09.898Z,4.73
2023-05-19T11:01:09.792Z,4.46
2023-05-19T11:02:09.793Z,4.57
2023-05-19T11:03:08.761Z,4.32
2023-05-19T11:04:09.796Z,4.86
2023-05-19T11:05:09.718Z,4.10
2023-05-19T11:06:08.694Z,3.78
2023-05-19T11:07:09.819Z,4.67
2023-05-19T11:08:09.013Z,4.95
2023-05-19T11:09:08.855Z,5.20
2023-05-19T11:10:08.847Z,4.39
2023-05-19T11:11:09.873Z,5.82
2023-05-19T11:12:10.019Z,5.22
2023-05-19T11:13:09.116Z,5.05
2023-05-19T11:14:09.953Z,4.94
2023-05-19T11:15:09.006Z,5.21
2023-05-19T11:16:10.055Z,5.53
2023-05-19T11:17:10.054Z,5.44
2023-05-19T11:18:09.100Z,5.58
2023-05-19T11:19:09.272Z,4.29
2023-05-19T11:20:09.269Z,4.53
2023-05-19T11:21:10.223Z,4.56
2023-05-19T11:22:09.257Z,4.48
2023-05-19T11:23:09.732Z,4.98
2023-05-19T11:24:10.365Z,5.07
2023-05-19T11:25:10.357Z,4.68
2023-05-19T11:26:10.381Z,4.90
2023-05-19T11:27:09.436Z,5.11
2023-05-19T11:28:09.463Z,5.02
2023-05-19T11:29:09.609Z,5.22
2023-05-19T11:30:09.826Z,5.65
2023-05-19T11:31:10.589Z,4.95
2023-05-19T11:32:09.667Z,5.13
2023-05-19T11:33:09.698Z,5.40
2023-05-19T11:34:09.756Z,5.12
2023-05-19T11:35:09.742Z,4.77
2023-05-19T11:36:10.919Z,5.02
2023-05-19T11:37:10.799Z,5.32
2023-05-19T11:38:10.879Z,5.01
2023-05-19T11:39:10.880Z,5.18
2023-05-19T11:40:10.910Z,5.55
2023-05-19T11:41:10.964Z,5.63
2023-05-19T11:42:11.304Z,5.50
2023-05-19T11:43:10.068Z,5.48
2023-05-19T11:44:10.095Z,5.04
2023-05-19T11:45:10.185Z,5.23
2023-05-19T11:46:11.220Z,5.23
2023-05-19T11:47:11.200Z,5.47
2023-05-19T11:48:10.342Z,5.89
2023-05-19T11:49:10.275Z,5.30
2023-05-19T11:50:10.345Z,5.81
2023-05-19T11:51:10.613Z,5.94
2023-05-19T11:52:11.336Z,5.84
2023-05-19T11:53:11.665Z,5.17
2023-05-19T11:54:11.445Z,4.92
2023-05-19T11:55:10.452Z,5.94
2023-05-19T11:56:10.638Z,5.27
2023-05-19T11:57:11.511Z,5.35
2023-05-19T11:58:10.605Z,6.18
2023-05-19T11:59:10.841Z,5.07
2023-05-19T12:00:11.802Z,5.60
2023-05-19T12:01:11.917Z,5.48
2023-05-19T12:02:11.784Z,5.75
2023-05-19T12:03:11.925Z,5.47
2023-05-19T12:04:10.856Z,5.36
2023-05-19T12:05:11.025Z,4.83
2023-05-19T12:06:12.266Z,4.76
2023-05-19T12:07:11.996Z,4.80
2023-05-19T12:08:11.035Z,4.68
2023-05-19T12:09:11.072Z,4.41
2023-05-19T12:10:11.372Z,4.09
2023-05-19T12:11:11.256Z,4.61
2023-05-19T12:12:12.183Z,4.38
2023-05-19T12:13:11.453Z,5.21
2023-05-19T12:14:12.311Z,5.30
2023-05-19T12:15:12.310Z,4.70
2023-05-19T12:16:12.465Z,5.08
2023-05-19T12:17:11.447Z,5.39
2023-05-19T12:18:11.414Z,5.31
2023-05-19T12:19:12.723Z,5.92
2023-05-19T12:20:12.737Z,5.18
2023-05-19T12:21:11.745Z,5.06
2023-05-19T12:22:11.529Z,5.21
2023-05-19T12:23:11.743Z,5.32
2023-05-19T12:24:11.642Z,5.06
2023-05-19T12:25:11.695Z,5.32
2023-05-19T12:26:11.650Z,5.52
2023-05-19T12:27:11.704Z,6.02
2023-05-19T12:28:12.747Z,5.83
2023-05-19T12:29:12.789Z,5.15
2023-05-19T12:30:12.746Z,5.82
2023-05-19T12:31:13.136Z,5.94
2023-05-19T12:32:11.878Z,5.00
2023-05-19T12:33:12.952Z,4.90
2023-05-19T12:34:11.910Z,5.42
2023-05-19T12:35:11.925Z,5.59
2023-05-19T12:36:11.972Z,5.82
2023-05-19T12:37:12.016Z,5.96
2023-05-19T12:38:12.980Z,5.96
2023-05-19T12:39:13.103Z,6.18
2023-05-19T12:40:12.067Z,5.47
2023-05-19T12:41:12.111Z,5.59
2023-05-19T12:42:12.141Z,5.92
2023-05-19T12:43:13.206Z,6.22
2023-05-19T12:44:13.406Z,5.87
2023-05-19T12:45:12.304Z,5.98
2023-05-19T12:46:13.512Z,5.36
2023-05-19T12:47:13.505Z,5.09
2023-05-19T12:48:13.502Z,5.51
2023-05-19T12:49:13.520Z,5.47
2023-05-19T12:50:13.451Z,5.35
2023-05-19T12:51:13.529Z,5.96
2023-05-19T12:52:13.218Z,5.33
2023-05-19T12:53:12.695Z,5.58
2023-05-19T12:54:12.591Z,6.11
2023-05-19T12:55:12.565Z,5.67
2023-05-19T12:56:12.666Z,5.52
2023-05-19T12:57:13.631Z,5.38
2023-05-19T12:58:13.749Z,6.13
2023-05-19T12:59:15.304Z,6.27
2023-05-19T13:00:12.668Z,5.94
2023-05-19T13:01:13.840Z,5.87
2023-05-19T13:02:12.760Z,6.48
2023-05-19T13:03:12.778Z,5.90
2023-05-19T13:04:13.879Z,6.34
2023-05-19T13:05:12.781Z,5.82
2023-05-19T13:06:12.785Z,6.16
2023-05-19T13:07:13.756Z,5.61
2023-05-19T13:08:12.771Z,5.93
2023-05-19T13:09:15.203Z,5.99
2023-05-19T13:10:12.752Z,5.87
2023-05-19T13:11:12.597Z,5.02
2023-05-19T13:12:12.842Z,5.73